Terminal Aerodrome Forecast
Issued by NWS Lake Charles, LA

Home | Current Version | Previous Version | Text Only | Print | Product List | Glossary On
Versions: 1 2 3 4 5 6 7 8 9 10 11 12 13 14
000
FTUS44 KLCH 272339
TAFAEX
TAF
KAEX 272339Z 2800/2824 18012KT P6SM FEW025
     FM280400 18007KT 6SM BR OVC015
     FM281400 18009KT P6SM BKN025
     FM281700 20009KT P6SM BKN040=

USA.gov is the U.S. government's official web portal to all federal, state and local government web resources and services.